sensor_id;sensor_type;location;lat;lon;timestamp;P1;durP1;ratioP1;P2;durP2;ratioP2
2123;SDS011;1068;52.460;13.528;2023-09-12T00:00:25;12.90;;;11.70;;
2123;SDS011;1068;52.460;13.528;2023-09-12T00:02:52;11.73;;;10.70;;
2123;SDS011;1068;52.460;13.528;2023-09-12T00:05:19;12.30;;;10.23;;
2123;SDS011;1068;52.460;13.528;2023-09-12T00:07:47;12.97;;;11.77;;
2123;SDS011;1068;52.460;13.528;2023-09-12T00:10:14;11.83;;;10.70;;
2123;SDS011;1068;52.460;13.528;2023-09-12T00:12:41;12.27;;;11.27;;
2123;SDS011;1068;52.460;13.528;2023-09-12T00:15:08;12.70;;;11.00;;
2123;SDS011;1068;52.460;13.528;2023-09-12T00:17:35;12.47;;;11.30;;
2123;SDS011;1068;52.460;13.528;2023-09-12T00:20:02;13.10;;;11.77;;
2123;SDS011;1068;52.460;13.528;2023-09-12T00:22:31;16.43;;;12.67;;
2123;SDS011;1068;52.460;13.528;2023-09-12T00:24:59;13.10;;;12.00;;
2123;SDS011;1068;52.460;13.528;2023-09-12T00:27:26;12.00;;;10.90;;
2123;SDS011;1068;52.460;13.528;2023-09-12T00:29:53;12.70;;;11.50;;
2123;SDS011;1068;52.460;13.528;2023-09-12T00:32:20;16.63;;;12.23;;
2123;SDS011;1068;52.460;13.528;2023-09-12T00:34:47;13.37;;;11.90;;
2123;SDS011;1068;52.460;13.528;2023-09-12T00:37:14;12.00;;;10.80;;
2123;SDS011;1068;52.460;13.528;2023-09-12T00:39:41;11.97;;;10.60;;
2123;SDS011;1068;52.460;13.528;2023-09-12T00:42:09;11.40;;;10.30;;
2123;SDS011;1068;52.460;13.528;2023-09-12T00:44:36;13.80;;;12.40;;
2123;SDS011;1068;52.460;13.528;2023-09-12T00:47:03;13.27;;;12.10;;
2123;SDS011;1068;52.460;13.528;2023-09-12T00:49:31;13.77;;;12.57;;
2123;SDS011;1068;52.460;13.528;2023-09-12T00:51:58;12.87;;;11.63;;
2123;SDS011;1068;52.460;13.528;2023-09-12T00:54:27;12.10;;;10.70;;
2123;SDS011;1068;52.460;13.528;2023-09-12T00:56:53;12.60;;;11.50;;
2123;SDS011;1068;52.460;13.528;2023-09-12T00:59:22;12.90;;;11.30;;
2123;SDS011;1068;52.460;13.528;2023-09-12T01:01:49;14.27;;;12.93;;
2123;SDS011;1068;52.460;13.528;2023-09-12T01:59:26;14.80;;;13.33;;
2123;SDS011;1068;52.460;13.528;2023-09-12T02:01:53;13.17;;;11.97;;
2123;SDS011;1068;52.460;13.528;2023-09-12T02:04:20;14.27;;;11.70;;
2123;SDS011;1068;52.460;13.528;2023-09-12T02:06:47;13.67;;;12.27;;
2123;SDS011;1068;52.460;13.528;2023-09-12T02:09:14;13.37;;;12.27;;
2123;SDS011;1068;52.460;13.528;2023-09-12T02:11:41;13.60;;;12.43;;
2123;SDS011;1068;52.460;13.528;2023-09-12T02:14:08;12.53;;;11.33;;
2123;SDS011;1068;52.460;13.528;2023-09-12T02:16:37;14.07;;;12.73;;
2123;SDS011;1068;52.460;13.528;2023-09-12T02:19:04;14.57;;;13.10;;
2123;SDS011;1068;52.460;13.528;2023-09-12T02:21:31;14.30;;;13.00;;
2123;SDS011;1068;52.460;13.528;2023-09-12T02:23:58;14.13;;;12.83;;
2123;SDS011;1068;52.460;13.528;2023-09-12T02:26:25;15.10;;;12.27;;
2123;SDS011;1068;52.460;13.528;2023-09-12T02:28:52;14.13;;;12.67;;
2123;SDS011;1068;52.460;13.528;2023-09-12T02:31:19;14.13;;;12.27;;
2123;SDS011;1068;52.460;13.528;2023-09-12T02:33:47;12.73;;;11.63;;
2123;SDS011;1068;52.460;13.528;2023-09-12T02:36:14;13.80;;;12.50;;
2123;SDS011;1068;52.460;13.528;2023-09-12T02:38:41;13.40;;;12.10;;
2123;SDS011;1068;52.460;13.528;2023-09-12T02:41:08;13.53;;;12.27;;
2123;SDS011;1068;52.460;13.528;2023-09-12T02:43:35;13.60;;;12.50;;
2123;SDS011;1068;52.460;13.528;2023-09-12T02:46:02;13.63;;;12.43;;
2123;SDS011;1068;52.460;13.528;2023-09-12T02:48:29;14.80;;;12.30;;
2123;SDS011;1068;52.460;13.528;2023-09-12T02:50:57;16.23;;;12.90;;
2123;SDS011;1068;52.460;13.528;2023-09-12T02:53:24;14.37;;;12.90;;
2123;SDS011;1068;52.460;13.528;2023-09-12T02:55:51;15.03;;;13.20;;
2123;SDS011;1068;52.460;13.528;2023-09-12T02:58:19;13.80;;;12.40;;
2123;SDS011;1068;52.460;13.528;2023-09-12T03:00:46;14.70;;;12.27;;
2123;SDS011;1068;52.460;13.528;2023-09-12T03:03:15;14.90;;;13.33;;
2123;SDS011;1068;52.460;13.528;2023-09-12T03:05:42;14.67;;;13.00;;
2123;SDS011;1068;52.460;13.528;2023-09-12T03:08:10;14.10;;;12.80;;
2123;SDS011;1068;52.460;13.528;2023-09-12T03:10:37;12.63;;;11.43;;
2123;SDS011;1068;52.460;13.528;2023-09-12T03:13:04;13.23;;;12.03;;
2123;SDS011;1068;52.460;13.528;2023-09-12T03:15:35;14.60;;;13.27;;
2123;SDS011;1068;52.460;13.528;2023-09-12T03:18:03;14.00;;;12.80;;
2123;SDS011;1068;52.460;13.528;2023-09-12T03:20:30;15.43;;;13.00;;
2123;SDS011;1068;52.460;13.528;2023-09-12T03:22:57;13.73;;;12.33;;
2123;SDS011;1068;52.460;13.528;2023-09-12T03:25:25;14.53;;;13.20;;
2123;SDS011;1068;52.460;13.528;2023-09-12T03:27:52;13.37;;;12.10;;
2123;SDS011;1068;52.460;13.528;2023-09-12T03:30:19;13.60;;;12.30;;
2123;SDS011;1068;52.460;13.528;2023-09-12T03:32:47;13.60;;;12.40;;
2123;SDS011;1068;52.460;13.528;2023-09-12T03:35:14;14.17;;;12.80;;
2123;SDS011;1068;52.460;13.528;2023-09-12T03:37:40;12.63;;;11.37;;
2123;SDS011;1068;52.460;13.528;2023-09-12T03:40:08;13.83;;;12.40;;
2123;SDS011;1068;52.460;13.528;2023-09-12T03:42:37;13.60;;;12.40;;
2123;SDS011;1068;52.460;13.528;2023-09-12T03:45:04;19.93;;;14.40;;
2123;SDS011;1068;52.460;13.528;2023-09-12T03:47:31;13.70;;;12.33;;
2123;SDS011;1068;52.460;13.528;2023-09-12T03:49:58;16.53;;;13.50;;
2123;SDS011;1068;52.460;13.528;2023-09-12T03:52:25;15.03;;;12.43;;
2123;SDS011;1068;52.460;13.528;2023-09-12T03:54:52;14.43;;;12.90;;
2123;SDS011;1068;52.460;13.528;2023-09-12T03:57:19;14.90;;;13.30;;
2123;SDS011;1068;52.460;13.528;2023-09-12T03:59:48;20.30;;;13.10;;
2123;SDS011;1068;52.460;13.528;2023-09-12T04:02:16;16.20;;;13.23;;
2123;SDS011;1068;52.460;13.528;2023-09-12T04:04:43;13.53;;;12.17;;
2123;SDS011;1068;52.460;13.528;2023-09-12T04:07:10;15.23;;;13.40;;
2123;SDS011;1068;52.460;13.528;2023-09-12T04:09:37;13.77;;;12.37;;
2123;SDS011;1068;52.460;13.528;2023-09-12T04:12:04;14.30;;;12.97;;
2123;SDS011;1068;52.460;13.528;2023-09-12T04:14:31;14.17;;;12.77;;
2123;SDS011;1068;52.460;13.528;2023-09-12T04:17:00;14.67;;;13.27;;
2123;SDS011;1068;52.460;13.528;2023-09-12T04:19:27;15.10;;;13.23;;
2123;SDS011;1068;52.460;13.528;2023-09-12T04:21:53;13.53;;;12.33;;
2123;SDS011;1068;52.460;13.528;2023-09-12T04:24:20;14.00;;;12.70;;
2123;SDS011;1068;52.460;13.528;2023-09-12T04:26:47;13.17;;;11.50;;
2123;SDS011;1068;52.460;13.528;2023-09-12T04:29:14;14.07;;;12.73;;
2123;SDS011;1068;52.460;13.528;2023-09-12T04:31:42;13.23;;;12.03;;
2123;SDS011;1068;52.460;13.528;2023-09-12T04:34:10;13.17;;;11.37;;
2123;SDS011;1068;52.460;13.528;2023-09-12T04:36:37;16.73;;;13.53;;
2123;SDS011;1068;52.460;13.528;2023-09-12T04:39:04;14.20;;;12.53;;
2123;SDS011;1068;52.460;13.528;2023-09-12T04:41:31;13.97;;;12.70;;
2123;SDS011;1068;52.460;13.528;2023-09-12T04:43:58;13.43;;;12.13;;
2123;SDS011;1068;52.460;13.528;2023-09-12T04:46:27;12.77;;;11.47;;
2123;SDS011;1068;52.460;13.528;2023-09-12T04:48:54;13.50;;;12.40;;
2123;SDS011;1068;52.460;13.528;2023-09-12T04:51:22;16.97;;;12.53;;
2123;SDS011;1068;52.460;13.528;2023-09-12T04:53:49;12.40;;;11.20;;
2123;SDS011;1068;52.460;13.528;2023-09-12T04:56:16;29.83;;;17.57;;
2123;SDS011;1068;52.460;13.528;2023-09-12T04:58:43;14.23;;;12.83;;
2123;SDS011;1068;52.460;13.528;2023-09-12T05:01:10;17.27;;;13.40;;
2123;SDS011;1068;52.460;13.528;2023-09-12T05:03:37;17.57;;;13.50;;
2123;SDS011;1068;52.460;13.528;2023-09-12T05:06:04;14.13;;;12.70;;
2123;SDS011;1068;52.460;13.528;2023-09-12T05:08:32;19.10;;;13.00;;
2123;SDS011;1068;52.460;13.528;2023-09-12T05:10:59;14.50;;;12.90;;
2123;SDS011;1068;52.460;13.528;2023-09-12T05:13:27;15.73;;;14.13;;
2123;SDS011;1068;52.460;13.528;2023-09-12T05:15:53;14.30;;;13.00;;
2123;SDS011;1068;52.460;13.528;2023-09-12T05:18:20;15.27;;;13.60;;
2123;SDS011;1068;52.460;13.528;2023-09-12T05:20:47;14.17;;;12.83;;
2123;SDS011;1068;52.460;13.528;2023-09-12T05:23:14;15.40;;;13.80;;
2123;SDS011;1068;52.460;13.528;2023-09-12T05:25:42;14.73;;;13.17;;
2123;SDS011;1068;52.460;13.528;2023-09-12T05:28:09;15.30;;;13.40;;
2123;SDS011;1068;52.460;13.528;2023-09-12T05:30:40;15.17;;;13.70;;
2123;SDS011;1068;52.460;13.528;2023-09-12T05:33:07;13.67;;;12.37;;
2123;SDS011;1068;52.460;13.528;2023-09-12T05:35:34;14.93;;;13.37;;
2123;SDS011;1068;52.460;13.528;2023-09-12T05:38:02;16.67;;;14.57;;
2123;SDS011;1068;52.460;13.528;2023-09-12T05:40:29;17.43;;;14.20;;
2123;SDS011;1068;52.460;13.528;2023-09-12T05:42:57;15.53;;;14.03;;
2123;SDS011;1068;52.460;13.528;2023-09-12T05:45:24;17.70;;;15.63;;
2123;SDS011;1068;52.460;13.528;2023-09-12T05:47:51;16.00;;;14.27;;
2123;SDS011;1068;52.460;13.528;2023-09-12T05:50:19;14.93;;;13.53;;
2123;SDS011;1068;52.460;13.528;2023-09-12T05:52:46;16.77;;;13.90;;
2123;SDS011;1068;52.460;13.528;2023-09-12T05:55:13;15.00;;;13.53;;
2123;SDS011;1068;52.460;13.528;2023-09-12T05:57:40;20.27;;;14.13;;
2123;SDS011;1068;52.460;13.528;2023-09-12T06:00:09;18.00;;;16.30;;
2123;SDS011;1068;52.460;13.528;2023-09-12T06:02:37;52.90;;;18.67;;
2123;SDS011;1068;52.460;13.528;2023-09-12T06:05:04;243.30;;;39.33;;
2123;SDS011;1068;52.460;13.528;2023-09-12T06:07:31;18.97;;;16.57;;
2123;SDS011;1068;52.460;13.528;2023-09-12T06:09:58;15.10;;;13.70;;
2123;SDS011;1068;52.460;13.528;2023-09-12T06:12:25;13.77;;;12.57;;
2123;SDS011;1068;52.460;13.528;2023-09-12T06:14:52;16.93;;;15.37;;
2123;SDS011;1068;52.460;13.528;2023-09-12T06:17:22;15.37;;;13.77;;
2123;SDS011;1068;52.460;13.528;2023-09-12T06:19:49;14.70;;;13.27;;
2123;SDS011;1068;52.460;13.528;2023-09-12T06:22:16;15.20;;;13.70;;
2123;SDS011;1068;52.460;13.528;2023-09-12T06:24:43;14.97;;;13.67;;
2123;SDS011;1068;52.460;13.528;2023-09-12T06:27:10;16.73;;;15.23;;
2123;SDS011;1068;52.460;13.528;2023-09-12T06:29:43;14.00;;;12.57;;
2123;SDS011;1068;52.460;13.528;2023-09-12T06:32:10;16.67;;;14.67;;
2123;SDS011;1068;52.460;13.528;2023-09-12T06:34:38;17.27;;;15.60;;
2123;SDS011;1068;52.460;13.528;2023-09-12T06:37:05;14.80;;;13.50;;
2123;SDS011;1068;52.460;13.528;2023-09-12T06:39:32;14.30;;;13.00;;
2123;SDS011;1068;52.460;13.528;2023-09-12T06:41:59;13.77;;;12.40;;
2123;SDS011;1068;52.460;13.528;2023-09-12T06:44:27;14.93;;;13.50;;
2123;SDS011;1068;52.460;13.528;2023-09-12T06:46:54;15.37;;;13.37;;
2123;SDS011;1068;52.460;13.528;2023-09-12T06:49:21;14.13;;;12.90;;
2123;SDS011;1068;52.460;13.528;2023-09-12T06:51:49;13.67;;;12.27;;
2123;SDS011;1068;52.460;13.528;2023-09-12T06:54:16;13.00;;;11.90;;
2123;SDS011;1068;52.460;13.528;2023-09-12T06:56:43;12.83;;;11.70;;
2123;SDS011;1068;52.460;13.528;2023-09-12T06:59:10;13.47;;;12.30;;
2123;SDS011;1068;52.460;13.528;2023-09-12T07:01:37;12.30;;;11.20;;
2123;SDS011;1068;52.460;13.528;2023-09-12T07:04:04;13.33;;;12.03;;
2123;SDS011;1068;52.460;13.528;2023-09-12T07:06:31;12.03;;;10.90;;
2123;SDS011;1068;52.460;13.528;2023-09-12T07:08:59;11.80;;;10.60;;
2123;SDS011;1068;52.460;13.528;2023-09-12T07:11:27;11.17;;;10.10;;
2123;SDS011;1068;52.460;13.528;2023-09-12T07:13:54;12.37;;;10.57;;
2123;SDS011;1068;52.460;13.528;2023-09-12T07:16:21;11.73;;;10.73;;
2123;SDS011;1068;52.460;13.528;2023-09-12T07:18:48;10.57;;;9.77;;
2123;SDS011;1068;52.460;13.528;2023-09-12T07:21:15;11.63;;;10.63;;
2123;SDS011;1068;52.460;13.528;2023-09-12T07:23:42;11.77;;;10.67;;
2123;SDS011;1068;52.460;13.528;2023-09-12T07:26:12;10.90;;;10.10;;
2123;SDS011;1068;52.460;13.528;2023-09-12T07:28:40;9.83;;;9.00;;
2123;SDS011;1068;52.460;13.528;2023-09-12T07:31:07;10.67;;;9.53;;
2123;SDS011;1068;52.460;13.528;2023-09-12T07:33:35;16.50;;;9.57;;
2123;SDS011;1068;52.460;13.528;2023-09-12T07:36:02;10.37;;;8.53;;
2123;SDS011;1068;52.460;13.528;2023-09-12T07:38:29;10.20;;;9.20;;
2123;SDS011;1068;52.460;13.528;2023-09-12T07:40:56;9.67;;;8.80;;
2123;SDS011;1068;52.460;13.528;2023-09-12T07:43:26;9.90;;;8.60;;
2123;SDS011;1068;52.460;13.528;2023-09-12T07:45:54;10.27;;;9.40;;
2123;SDS011;1068;52.460;13.528;2023-09-12T07:48:22;10.23;;;9.43;;
2123;SDS011;1068;52.460;13.528;2023-09-12T07:50:49;11.23;;;9.30;;
2123;SDS011;1068;52.460;13.528;2023-09-12T07:53:16;10.73;;;9.83;;
2123;SDS011;1068;52.460;13.528;2023-09-12T07:55:43;10.27;;;9.27;;
2123;SDS011;1068;52.460;13.528;2023-09-12T07:58:11;11.77;;;9.60;;
2123;SDS011;1068;52.460;13.528;2023-09-12T08:00:39;8.97;;;8.00;;
2123;SDS011;1068;52.460;13.528;2023-09-12T08:03:06;11.70;;;9.90;;
2123;SDS011;1068;52.460;13.528;2023-09-12T08:05:33;10.30;;;9.40;;
2123;SDS011;1068;52.460;13.528;2023-09-12T08:08:00;8.37;;;7.57;;
2123;SDS011;1068;52.460;13.528;2023-09-12T08:10:27;8.80;;;8.00;;
2123;SDS011;1068;52.460;13.528;2023-09-12T08:12:54;8.77;;;8.07;;
2123;SDS011;1068;52.460;13.528;2023-09-12T08:15:21;9.67;;;8.80;;
2123;SDS011;1068;52.460;13.528;2023-09-12T08:17:49;9.37;;;8.37;;
2123;SDS011;1068;52.460;13.528;2023-09-12T08:20:18;9.40;;;8.23;;
2123;SDS011;1068;52.460;13.528;2023-09-12T08:22:45;9.53;;;8.53;;
2123;SDS011;1068;52.460;13.528;2023-09-12T08:25:12;10.10;;;9.03;;
2123;SDS011;1068;52.460;13.528;2023-09-12T08:27:39;7.87;;;7.13;;
2123;SDS011;1068;52.460;13.528;2023-09-12T08:30:08;8.97;;;8.13;;
2123;SDS011;1068;52.460;13.528;2023-09-12T08:32:35;8.77;;;7.83;;
2123;SDS011;1068;52.460;13.528;2023-09-12T08:35:06;8.23;;;6.80;;
2123;SDS011;1068;52.460;13.528;2023-09-12T08:37:33;11.33;;;7.40;;
2123;SDS011;1068;52.460;13.528;2023-09-12T08:40:00;9.83;;;7.57;;
2123;SDS011;1068;52.460;13.528;2023-09-12T08:42:32;8.83;;;8.03;;
2123;SDS011;1068;52.460;13.528;2023-09-12T08:44:59;10.03;;;6.57;;
2123;SDS011;1068;52.460;13.528;2023-09-12T08:47:27;8.93;;;8.03;;
2123;SDS011;1068;52.460;13.528;2023-09-12T08:49:54;10.50;;;8.00;;
2123;SDS011;1068;52.460;13.528;2023-09-12T08:52:23;9.47;;;7.10;;
2123;SDS011;1068;52.460;13.528;2023-09-12T08:54:50;8.60;;;7.33;;
2123;SDS011;1068;52.460;13.528;2023-09-12T08:57:17;10.70;;;7.07;;
2123;SDS011;1068;52.460;13.528;2023-09-12T08:59:44;12.50;;;7.50;;
2123;SDS011;1068;52.460;13.528;2023-09-12T09:02:12;8.97;;;6.70;;
2123;SDS011;1068;52.460;13.528;2023-09-12T09:04:40;7.50;;;6.27;;
2123;SDS011;1068;52.460;13.528;2023-09-12T09:07:08;11.10;;;7.23;;
2123;SDS011;1068;52.460;13.528;2023-09-12T09:09:37;7.63;;;6.00;;
2123;SDS011;1068;52.460;13.528;2023-09-12T09:12:06;12.03;;;6.97;;
2123;SDS011;1068;52.460;13.528;2023-09-12T09:14:33;10.03;;;6.40;;
2123;SDS011;1068;52.460;13.528;2023-09-12T09:17:00;7.00;;;6.00;;
2123;SDS011;1068;52.460;13.528;2023-09-12T09:19:39;8.13;;;5.63;;
2123;SDS011;1068;52.460;13.528;2023-09-12T09:22:06;7.40;;;5.90;;
2123;SDS011;1068;52.460;13.528;2023-09-12T09:24:33;8.07;;;6.30;;
2123;SDS011;1068;52.460;13.528;2023-09-12T09:27:02;6.30;;;5.80;;
2123;SDS011;1068;52.460;13.528;2023-09-12T09:29:29;8.13;;;6.00;;
2123;SDS011;1068;52.460;13.528;2023-09-12T09:31:58;6.27;;;5.70;;
2123;SDS011;1068;52.460;13.528;2023-09-12T09:34:26;10.53;;;7.30;;
2123;SDS011;1068;52.460;13.528;2023-09-12T09:36:54;7.30;;;6.23;;
2123;SDS011;1068;52.460;13.528;2023-09-12T09:39:22;7.03;;;6.43;;
2123;SDS011;1068;52.460;13.528;2023-09-12T09:41:51;7.93;;;6.03;;
2123;SDS011;1068;52.460;13.528;2023-09-12T09:44:20;6.00;;;5.40;;
2123;SDS011;1068;52.460;13.528;2023-09-12T09:46:50;9.67;;;6.60;;
2123;SDS011;1068;52.460;13.528;2023-09-12T09:49:19;6.50;;;5.90;;
2123;SDS011;1068;52.460;13.528;2023-09-12T09:51:46;6.33;;;5.70;;
2123;SDS011;1068;52.460;13.528;2023-09-12T09:54:13;9.20;;;5.80;;
2123;SDS011;1068;52.460;13.528;2023-09-12T09:56:46;7.00;;;5.30;;
2123;SDS011;1068;52.460;13.528;2023-09-12T09:59:14;10.33;;;5.50;;
2123;SDS011;1068;52.460;13.528;2023-09-12T10:01:42;8.10;;;5.63;;
2123;SDS011;1068;52.460;13.528;2023-09-12T10:04:10;6.93;;;5.23;;
2123;SDS011;1068;52.460;13.528;2023-09-12T10:06:37;11.73;;;6.33;;
2123;SDS011;1068;52.460;13.528;2023-09-12T10:09:05;8.90;;;5.07;;
2123;SDS011;1068;52.460;13.528;2023-09-12T10:11:33;8.90;;;5.60;;
2123;SDS011;1068;52.460;13.528;2023-09-12T10:14:00;10.97;;;5.57;;
2123;SDS011;1068;52.460;13.528;2023-09-12T10:16:30;12.53;;;5.87;;
2123;SDS011;1068;52.460;13.528;2023-09-12T10:19:02;9.50;;;5.30;;
2123;SDS011;1068;52.460;13.528;2023-09-12T10:21:31;8.27;;;5.50;;
2123;SDS011;1068;52.460;13.528;2023-09-12T10:24:00;9.83;;;6.07;;
2123;SDS011;1068;52.460;13.528;2023-09-12T10:26:29;10.23;;;6.30;;
2123;SDS011;1068;52.460;13.528;2023-09-12T10:28:57;13.30;;;6.33;;
2123;SDS011;1068;52.460;13.528;2023-09-12T10:31:24;11.10;;;5.83;;
2123;SDS011;1068;52.460;13.528;2023-09-12T10:33:51;10.67;;;5.87;;
2123;SDS011;1068;52.460;13.528;2023-09-12T10:36:20;10.33;;;6.53;;
2123;SDS011;1068;52.460;13.528;2023-09-12T10:38:49;9.20;;;5.57;;
2123;SDS011;1068;52.460;13.528;2023-09-12T10:41:16;8.67;;;5.93;;
2123;SDS011;1068;52.460;13.528;2023-09-12T10:43:43;12.60;;;5.10;;
2123;SDS011;1068;52.460;13.528;2023-09-12T10:46:12;8.23;;;5.07;;
2123;SDS011;1068;52.460;13.528;2023-09-12T10:48:39;9.50;;;5.50;;
2123;SDS011;1068;52.460;13.528;2023-09-12T10:51:07;12.73;;;5.10;;
2123;SDS011;1068;52.460;13.528;2023-09-12T10:53:36;8.67;;;5.60;;
2123;SDS011;1068;52.460;13.528;2023-09-12T10:56:14;11.03;;;5.60;;
2123;SDS011;1068;52.460;13.528;2023-09-12T11:01:23;11.73;;;6.00;;
2123;SDS011;1068;52.460;13.528;2023-09-12T11:03:50;12.63;;;6.00;;
2123;SDS011;1068;52.460;13.528;2023-09-12T11:06:21;9.57;;;6.43;;
2123;SDS011;1068;52.460;13.528;2023-09-12T11:11:35;12.27;;;6.70;;
2123;SDS011;1068;52.460;13.528;2023-09-12T11:14:02;8.40;;;6.03;;
2123;SDS011;1068;52.460;13.528;2023-09-12T11:16:29;7.60;;;6.03;;
2123;SDS011;1068;52.460;13.528;2023-09-12T11:19:12;10.00;;;6.10;;
2123;SDS011;1068;52.460;13.528;2023-09-12T11:21:39;10.20;;;5.93;;
2123;SDS011;1068;52.460;13.528;2023-09-12T11:24:06;18.43;;;7.00;;
2123;SDS011;1068;52.460;13.528;2023-09-12T11:26:34;14.00;;;6.90;;
2123;SDS011;1068;52.460;13.528;2023-09-12T11:29:11;8.50;;;6.13;;
2123;SDS011;1068;52.460;13.528;2023-09-12T11:31:38;8.37;;;5.93;;
2123;SDS011;1068;52.460;13.528;2023-09-12T11:34:08;11.37;;;6.73;;
2123;SDS011;1068;52.460;13.528;2023-09-12T11:36:37;9.73;;;5.70;;
2123;SDS011;1068;52.460;13.528;2023-09-12T11:39:04;10.77;;;6.80;;
2123;SDS011;1068;52.460;13.528;2023-09-12T11:41:50;13.00;;;6.00;;
2123;SDS011;1068;52.460;13.528;2023-09-12T11:44:17;12.93;;;5.47;;
2123;SDS011;1068;52.460;13.528;2023-09-12T11:46:45;9.83;;;5.90;;
2123;SDS011;1068;52.460;13.528;2023-09-12T11:49:14;8.60;;;6.83;;
2123;SDS011;1068;52.460;13.528;2023-09-12T11:51:46;8.00;;;6.40;;
2123;SDS011;1068;52.460;13.528;2023-09-12T11:54:14;10.83;;;6.80;;
2123;SDS011;1068;52.460;13.528;2023-09-12T11:56:40;11.97;;;6.67;;
2123;SDS011;1068;52.460;13.528;2023-09-12T11:59:09;10.97;;;6.00;;
2123;SDS011;1068;52.460;13.528;2023-09-12T12:01:36;9.20;;;5.50;;
2123;SDS011;1068;52.460;13.528;2023-09-12T12:04:03;14.77;;;6.67;;
2123;SDS011;1068;52.460;13.528;2023-09-12T12:06:32;7.37;;;5.90;;
2123;SDS011;1068;52.460;13.528;2023-09-12T12:09:00;9.20;;;5.93;;
2123;SDS011;1068;52.460;13.528;2023-09-12T12:11:29;9.63;;;6.17;;
2123;SDS011;1068;52.460;13.528;2023-09-12T12:13:56;6.70;;;5.73;;
2123;SDS011;1068;52.460;13.528;2023-09-12T12:16:26;12.50;;;6.23;;
2123;SDS011;1068;52.460;13.528;2023-09-12T12:18:53;9.43;;;6.10;;
2123;SDS011;1068;52.460;13.528;2023-09-12T12:21:22;10.63;;;5.60;;
2123;SDS011;1068;52.460;13.528;2023-09-12T12:23:57;15.97;;;6.47;;
2123;SDS011;1068;52.460;13.528;2023-09-12T12:26:24;13.63;;;6.03;;
2123;SDS011;1068;52.460;13.528;2023-09-12T12:28:51;8.77;;;6.13;;
2123;SDS011;1068;52.460;13.528;2023-09-12T12:31:18;9.33;;;6.57;;
2123;SDS011;1068;52.460;13.528;2023-09-12T12:33:51;14.97;;;6.47;;
2123;SDS011;1068;52.460;13.528;2023-09-12T12:36:19;6.00;;;5.40;;
2123;SDS011;1068;52.460;13.528;2023-09-12T12:38:47;11.37;;;6.40;;
2123;SDS011;1068;52.460;13.528;2023-09-12T12:41:15;9.53;;;5.97;;
2123;SDS011;1068;52.460;13.528;2023-09-12T12:43:42;8.77;;;5.27;;
2123;SDS011;1068;52.460;13.528;2023-09-12T12:46:10;14.73;;;6.73;;
2123;SDS011;1068;52.460;13.528;2023-09-12T12:48:38;9.03;;;5.73;;
2123;SDS011;1068;52.460;13.528;2023-09-12T12:51:13;14.87;;;5.30;;
2123;SDS011;1068;52.460;13.528;2023-09-12T12:53:42;14.23;;;6.73;;
2123;SDS011;1068;52.460;13.528;2023-09-12T12:56:10;7.17;;;5.00;;
2123;SDS011;1068;52.460;13.528;2023-09-12T12:58:37;8.80;;;5.23;;
2123;SDS011;1068;52.460;13.528;2023-09-12T13:01:04;9.67;;;5.50;;
2123;SDS011;1068;52.460;13.528;2023-09-12T13:03:31;12.07;;;5.80;;
2123;SDS011;1068;52.460;13.528;2023-09-12T13:05:58;10.13;;;5.63;;
2123;SDS011;1068;52.460;13.528;2023-09-12T13:08:26;11.90;;;6.53;;
2123;SDS011;1068;52.460;13.528;2023-09-12T13:10:53;12.43;;;6.20;;
2123;SDS011;1068;52.460;13.528;2023-09-12T13:13:21;10.97;;;6.57;;
2123;SDS011;1068;52.460;13.528;2023-09-12T13:15:48;13.47;;;5.97;;
2123;SDS011;1068;52.460;13.528;2023-09-12T13:18:15;13.10;;;6.37;;
2123;SDS011;1068;52.460;13.528;2023-09-12T13:20:43;13.30;;;5.80;;
2123;SDS011;1068;52.460;13.528;2023-09-12T13:23:10;11.33;;;5.93;;
2123;SDS011;1068;52.460;13.528;2023-09-12T13:25:38;10.30;;;5.90;;
2123;SDS011;1068;52.460;13.528;2023-09-12T13:28:05;10.90;;;5.83;;
2123;SDS011;1068;52.460;13.528;2023-09-12T13:30:33;15.27;;;5.47;;
2123;SDS011;1068;52.460;13.528;2023-09-12T13:33:00;8.70;;;5.23;;
2123;SDS011;1068;52.460;13.528;2023-09-12T13:35:28;9.07;;;5.73;;
2123;SDS011;1068;52.460;13.528;2023-09-12T13:37:57;12.37;;;5.90;;
2123;SDS011;1068;52.460;13.528;2023-09-12T13:40:23;9.80;;;5.60;;
2123;SDS011;1068;52.460;13.528;2023-09-12T13:42:54;11.00;;;5.73;;
2123;SDS011;1068;52.460;13.528;2023-09-12T13:45:22;12.53;;;5.90;;
2123;SDS011;1068;52.460;13.528;2023-09-12T13:47:49;8.50;;;5.13;;
2123;SDS011;1068;52.460;13.528;2023-09-12T13:50:15;16.53;;;7.30;;
2123;SDS011;1068;52.460;13.528;2023-09-12T13:52:43;10.80;;;5.60;;
2123;SDS011;1068;52.460;13.528;2023-09-12T13:55:10;10.67;;;5.57;;
2123;SDS011;1068;52.460;13.528;2023-09-12T13:57:39;14.00;;;5.40;;
2123;SDS011;1068;52.460;13.528;2023-09-12T14:00:08;11.00;;;6.50;;
2123;SDS011;1068;52.460;13.528;2023-09-12T14:02:35;14.53;;;6.00;;
2123;SDS011;1068;52.460;13.528;2023-09-12T14:05:02;9.53;;;4.90;;
2123;SDS011;1068;52.460;13.528;2023-09-12T14:07:29;12.23;;;5.10;;
2123;SDS011;1068;52.460;13.528;2023-09-12T14:09:56;9.93;;;4.80;;
2123;SDS011;1068;52.460;13.528;2023-09-12T14:12:23;15.07;;;6.97;;
2123;SDS011;1068;52.460;13.528;2023-09-12T14:14:50;6.07;;;5.47;;
2123;SDS011;1068;52.460;13.528;2023-09-12T14:17:19;10.80;;;5.40;;
2123;SDS011;1068;52.460;13.528;2023-09-12T14:19:46;6.70;;;5.30;;
2123;SDS011;1068;52.460;13.528;2023-09-12T14:22:13;14.50;;;5.73;;
2123;SDS011;1068;52.460;13.528;2023-09-12T14:24:40;6.70;;;5.43;;
2123;SDS011;1068;52.460;13.528;2023-09-12T14:27:07;8.73;;;6.10;;
2123;SDS011;1068;52.460;13.528;2023-09-12T14:29:34;10.60;;;4.93;;
2123;SDS011;1068;52.460;13.528;2023-09-12T14:32:01;9.07;;;6.57;;
2123;SDS011;1068;52.460;13.528;2023-09-12T14:34:29;5.47;;;5.00;;
2123;SDS011;1068;52.460;13.528;2023-09-12T14:36:58;13.77;;;5.83;;
2123;SDS011;1068;52.460;13.528;2023-09-12T14:39:25;12.20;;;6.30;;
2123;SDS011;1068;52.460;13.528;2023-09-12T14:41:52;12.03;;;6.03;;
2123;SDS011;1068;52.460;13.528;2023-09-12T14:44:19;10.23;;;5.70;;
2123;SDS011;1068;52.460;13.528;2023-09-12T14:46:46;8.37;;;5.83;;
2123;SDS011;1068;52.460;13.528;2023-09-12T14:49:13;13.47;;;4.87;;
2123;SDS011;1068;52.460;13.528;2023-09-12T14:51:42;7.63;;;6.30;;
2123;SDS011;1068;52.460;13.528;2023-09-12T14:54:09;12.10;;;5.97;;
2123;SDS011;1068;52.460;13.528;2023-09-12T14:56:36;10.97;;;7.17;;
2123;SDS011;1068;52.460;13.528;2023-09-12T14:59:03;9.67;;;5.87;;
2123;SDS011;1068;52.460;13.528;2023-09-12T15:01:30;14.03;;;6.40;;
2123;SDS011;1068;52.460;13.528;2023-09-12T15:03:59;10.60;;;5.43;;
2123;SDS011;1068;52.460;13.528;2023-09-12T15:06:26;6.70;;;6.00;;
2123;SDS011;1068;52.460;13.528;2023-09-12T15:08:59;10.47;;;6.27;;
2123;SDS011;1068;52.460;13.528;2023-09-12T15:11:26;10.90;;;5.97;;
2123;SDS011;1068;52.460;13.528;2023-09-12T15:13:53;7.23;;;5.50;;
2123;SDS011;1068;52.460;13.528;2023-09-12T15:16:19;9.37;;;5.90;;
2123;SDS011;1068;52.460;13.528;2023-09-12T15:18:47;5.80;;;5.03;;
2123;SDS011;1068;52.460;13.528;2023-09-12T15:21:13;9.60;;;6.10;;
2123;SDS011;1068;52.460;13.528;2023-09-12T15:23:40;5.30;;;4.80;;
2123;SDS011;1068;52.460;13.528;2023-09-12T15:26:09;10.23;;;5.50;;
2123;SDS011;1068;52.460;13.528;2023-09-12T15:28:36;5.90;;;5.40;;
2123;SDS011;1068;52.460;13.528;2023-09-12T15:31:02;9.70;;;5.77;;
2123;SDS011;1068;52.460;13.528;2023-09-12T15:33:29;12.03;;;5.47;;
2123;SDS011;1068;52.460;13.528;2023-09-12T15:35:56;17.73;;;5.77;;
2123;SDS011;1068;52.460;13.528;2023-09-12T15:38:23;9.43;;;5.43;;
2123;SDS011;1068;52.460;13.528;2023-09-12T15:40:52;10.30;;;5.80;;
2123;SDS011;1068;52.460;13.528;2023-09-12T15:43:21;7.37;;;6.03;;
2123;SDS011;1068;52.460;13.528;2023-09-12T15:45:48;14.43;;;6.30;;
2123;SDS011;1068;52.460;13.528;2023-09-12T15:48:14;8.20;;;4.93;;